createdAt,value
2023-03-06T00:01:19.348Z,1.88
2023-03-06T00:03:49.875Z,1.90
2023-03-06T00:06:20.648Z,1.94
2023-03-06T00:08:51.032Z,1.96
2023-03-06T00:11:22.044Z,1.96
2023-03-06T00:13:53.326Z,1.96
2023-03-06T00:16:25.036Z,1.95
2023-03-06T00:18:55.575Z,1.94
2023-03-06T00:21:26.125Z,1.89
2023-03-06T00:23:56.537Z,1.84
2023-03-06T00:26:27.081Z,1.80
2023-03-06T00:28:57.508Z,1.78
2023-03-06T00:31:28.104Z,1.75
2023-03-06T00:33:58.526Z,1.72
2023-03-06T00:36:29.040Z,1.69
2023-03-06T00:38:59.471Z,1.69
2023-03-06T00:41:30.000Z,1.71
2023-03-06T00:44:01.551Z,1.71
2023-03-06T00:46:32.111Z,1.70
2023-03-06T00:49:02.663Z,1.68
2023-03-06T00:51:33.891Z,1.68
2023-03-06T00:54:04.463Z,1.66
2023-03-06T00:56:34.931Z,1.71
2023-03-06T00:59:05.501Z,1.77
2023-03-06T01:01:36.133Z,1.82
2023-03-06T01:04:06.810Z,1.89
2023-03-06T01:06:37.475Z,1.94
2023-03-06T01:09:08.052Z,1.96
2023-03-06T01:11:38.686Z,2.00
2023-03-06T01:14:09.398Z,2.03
2023-03-06T01:16:40.560Z,2.05
2023-03-06T01:19:11.070Z,2.07
2023-03-06T01:21:42.738Z,2.08
2023-03-06T01:24:13.234Z,2.09
2023-03-06T01:26:43.704Z,2.09
2023-03-06T01:29:14.179Z,2.11
2023-03-06T01:31:44.675Z,2.11
2023-03-06T01:34:15.101Z,2.12
2023-03-06T01:36:45.742Z,2.11
2023-03-06T01:39:16.304Z,2.12
2023-03-06T01:41:47.001Z,2.13
2023-03-06T01:44:17.436Z,2.14
2023-03-06T01:46:48.356Z,2.16
2023-03-06T01:49:22.207Z,2.18
2023-03-06T01:51:56.862Z,2.19
2023-03-06T01:54:30.545Z,2.22
2023-03-06T01:57:05.196Z,2.30
2023-03-06T01:59:38.670Z,2.37
2023-03-06T02:02:12.183Z,2.44
2023-03-06T02:04:44.184Z,2.53
2023-03-06T02:07:15.393Z,2.60
2023-03-06T02:09:45.832Z,2.63
2023-03-06T02:12:20.131Z,2.64
2023-03-06T02:14:51.202Z,2.65
2023-03-06T02:17:23.353Z,2.64
2023-03-06T02:19:59.992Z,2.63
2023-03-06T02:22:37.230Z,2.60
2023-03-06T02:25:16.369Z,2.58
2023-03-06T02:27:48.413Z,2.57
2023-03-06T02:30:20.171Z,2.56
2023-03-06T02:32:50.648Z,2.55
2023-03-06T02:35:25.129Z,2.54
2023-03-06T02:37:57.133Z,2.54
2023-03-06T02:40:27.963Z,2.52
2023-03-06T02:42:59.688Z,2.50
2023-03-06T02:45:35.747Z,2.48
2023-03-06T02:48:07.105Z,2.46
2023-03-06T02:50:37.551Z,2.42
2023-03-06T02:53:08.969Z,2.41
2023-03-06T02:55:40.064Z,2.40
2023-03-06T02:58:11.032Z,2.45
2023-03-06T03:00:42.507Z,2.52
2023-03-06T03:03:13.338Z,2.57
2023-03-06T03:05:43.822Z,2.64
2023-03-06T03:08:18.492Z,2.68
2023-03-06T03:10:49.638Z,2.71
2023-03-06T03:13:20.743Z,2.73
2023-03-06T03:16:01.708Z,2.74
2023-03-06T03:18:32.888Z,2.70
2023-03-06T03:21:03.984Z,2.67
2023-03-06T03:23:34.445Z,2.67
2023-03-06T03:26:11.580Z,2.65
2023-03-06T03:28:44.074Z,2.63
2023-03-06T03:31:15.820Z,2.62
2023-03-06T03:33:46.316Z,2.60
2023-03-06T03:36:17.008Z,2.59
2023-03-06T03:38:48.007Z,2.57
2023-03-06T03:41:18.597Z,2.56
2023-03-06T03:43:49.644Z,2.55
2023-03-06T03:46:21.536Z,2.53
2023-03-06T03:48:52.657Z,2.49
2023-03-06T03:51:23.534Z,2.49
2023-03-06T03:53:58.139Z,2.48
2023-03-06T03:56:29.826Z,2.48
2023-03-06T03:59:04.693Z,2.55
2023-03-06T04:01:40.279Z,2.62
2023-03-06T04:04:11.535Z,2.69
2023-03-06T04:06:42.322Z,2.73
2023-03-06T04:09:13.051Z,2.77
2023-03-06T04:11:43.497Z,2.81
2023-03-06T04:14:14.159Z,2.85
2023-03-06T04:16:44.637Z,2.84
2023-03-06T04:19:15.189Z,2.85
2023-03-06T04:21:45.994Z,2.84
2023-03-06T04:24:17.666Z,2.83
2023-03-06T04:26:48.191Z,2.82
2023-03-06T04:29:18.680Z,2.83
2023-03-06T04:31:49.559Z,2.82
2023-03-06T04:34:20.211Z,2.80
2023-03-06T04:36:50.771Z,2.77
2023-03-06T04:39:21.406Z,2.75
2023-03-06T04:41:52.378Z,2.71
2023-03-06T04:44:23.046Z,2.67
2023-03-06T04:46:53.805Z,2.66
2023-03-06T04:49:24.273Z,2.61
2023-03-06T04:51:54.968Z,2.60
2023-03-06T04:54:25.616Z,2.65
2023-03-06T04:56:56.031Z,2.69
2023-03-06T04:59:26.521Z,2.74
2023-03-06T05:01:57.122Z,2.79
2023-03-06T05:04:27.721Z,2.84
2023-03-06T05:06:58.248Z,2.83
2023-03-06T05:09:28.762Z,2.81
2023-03-06T05:16:12.809Z,2.74
2023-03-06T05:18:43.494Z,2.71
2023-03-06T05:21:14.368Z,2.67
2023-03-06T05:23:44.817Z,2.65
2023-03-06T05:26:16.878Z,2.62
2023-03-06T05:28:47.265Z,2.59
2023-03-06T05:31:17.785Z,2.56
2023-03-06T05:33:48.374Z,2.54
2023-03-06T05:36:18.841Z,2.54
2023-03-06T05:38:49.334Z,2.53
2023-03-06T05:41:19.892Z,2.57
2023-03-06T05:43:50.422Z,2.64
2023-03-06T05:46:21.005Z,2.67
2023-03-06T05:48:52.544Z,2.72
2023-03-06T05:51:23.012Z,2.79
2023-03-06T05:53:53.503Z,2.82
2023-03-06T05:56:24.061Z,2.84
2023-03-06T05:58:54.502Z,2.86
2023-03-06T06:01:26.029Z,2.88
2023-03-06T06:03:56.704Z,2.89
2023-03-06T06:06:27.234Z,2.90
2023-03-06T06:13:10.655Z,2.92
2023-03-06T06:15:41.744Z,2.94
2023-03-06T06:18:12.375Z,2.97
2023-03-06T06:20:42.839Z,2.99
2023-03-06T06:23:14.074Z,3.01
2023-03-06T06:25:44.601Z,3.02
2023-03-06T06:28:15.033Z,3.04
2023-03-06T06:30:45.660Z,3.05
2023-03-06T06:33:16.167Z,3.05
2023-03-06T06:35:46.693Z,3.11
2023-03-06T06:38:17.248Z,3.16
2023-03-06T06:41:18.035Z,3.23
2023-03-06T06:43:38.143Z,3.28
2023-03-06T06:46:38.827Z,3.32
2023-03-06T06:49:00.153Z,3.37
2023-03-06T06:51:33.681Z,3.39
2023-03-06T06:54:04.457Z,3.41
2023-03-06T06:56:35.877Z,3.45
2023-03-06T06:59:16.138Z,3.48
2023-03-06T07:01:47.865Z,3.50
2023-03-06T07:04:19.261Z,3.51
2023-03-06T07:06:49.690Z,3.53
2023-03-06T07:09:20.616Z,3.58
2023-03-06T07:11:51.437Z,3.62
2023-03-06T07:14:22.099Z,3.64
2023-03-06T07:16:52.600Z,3.65
2023-03-06T07:19:23.246Z,3.66
2023-03-06T07:21:53.783Z,3.68
2023-03-06T07:24:24.379Z,3.67
2023-03-06T07:26:54.849Z,3.68
2023-03-06T07:29:25.341Z,3.67
2023-03-06T07:31:56.047Z,3.68
2023-03-06T07:34:26.686Z,3.72
2023-03-06T07:36:57.236Z,3.82
2023-03-06T07:39:28.244Z,3.91
2023-03-06T07:41:59.226Z,3.98
2023-03-06T07:44:30.202Z,4.06
2023-03-06T07:47:00.926Z,4.13
2023-03-06T07:49:31.618Z,4.20
2023-03-06T07:52:03.147Z,4.27
2023-03-06T07:54:35.294Z,4.29
2023-03-06T07:57:06.077Z,4.32
2023-03-06T07:59:36.571Z,4.34
2023-03-06T08:02:07.280Z,4.36
2023-03-06T08:04:37.707Z,4.37
2023-03-06T08:07:08.362Z,4.41
2023-03-06T08:09:38.958Z,4.45
2023-03-06T08:12:10.665Z,4.45
2023-03-06T08:14:41.256Z,4.45
2023-03-06T08:17:11.786Z,4.50
2023-03-06T08:19:42.213Z,4.56
2023-03-06T08:22:14.082Z,4.60
2023-03-06T08:24:44.603Z,4.63
2023-03-06T08:27:15.097Z,4.65
2023-03-06T08:29:45.539Z,4.68
2023-03-06T08:32:16.091Z,4.70
2023-03-06T08:34:46.825Z,4.72
2023-03-06T08:37:17.315Z,4.73
2023-03-06T08:39:47.847Z,4.73
2023-03-06T08:42:18.415Z,4.72
2023-03-06T08:44:48.964Z,4.75
2023-03-06T08:47:19.517Z,4.77
2023-03-06T08:49:50.062Z,4.83
2023-03-06T08:52:20.983Z,4.89
2023-03-06T08:54:51.407Z,4.98
2023-03-06T08:57:22.103Z,5.03
2023-03-06T08:59:52.591Z,5.07
2023-03-06T09:02:23.193Z,5.13
2023-03-06T09:04:53.991Z,5.21
2023-03-06T09:07:24.467Z,5.29
2023-03-06T09:09:58.567Z,5.36
2023-03-06T09:12:30.823Z,5.43
2023-03-06T09:15:08.061Z,5.49
2023-03-06T09:17:38.555Z,5.57
2023-03-06T09:20:12.031Z,5.66
2023-03-06T09:22:43.070Z,5.73
2023-03-06T09:25:17.606Z,5.80
2023-03-06T09:27:55.484Z,5.87
2023-03-06T09:30:32.711Z,5.93
2023-03-06T09:33:03.319Z,5.97
2023-03-06T09:35:33.841Z,6.02
2023-03-06T09:38:04.304Z,6.05
2023-03-06T09:40:49.353Z,6.07
2023-03-06T09:43:27.143Z,6.13
2023-03-06T09:45:58.182Z,6.14
2023-03-06T09:48:40.647Z,6.11
2023-03-06T09:51:16.248Z,6.10
2023-03-06T09:54:02.463Z,6.14
2023-03-06T09:56:36.872Z,6.18
2023-03-06T09:59:14.296Z,6.19
2023-03-06T10:01:50.921Z,6.16
2023-03-06T10:04:35.647Z,6.20
2023-03-06T10:07:14.205Z,6.28
2023-03-06T10:09:51.899Z,6.30
2023-03-06T10:12:28.816Z,6.24
2023-03-06T10:15:04.030Z,6.26
2023-03-06T10:17:38.561Z,6.33
2023-03-06T10:20:25.176Z,6.39
2023-03-06T10:23:08.085Z,6.42
2023-03-06T10:25:48.858Z,6.43
2023-03-06T10:28:25.520Z,6.46
2023-03-06T10:31:04.188Z,6.48
2023-03-06T10:33:48.177Z,6.49
2023-03-06T10:36:20.878Z,6.50
2023-03-06T10:38:51.718Z,6.53
2023-03-06T10:41:28.533Z,6.59
2023-03-06T10:44:20.947Z,6.67
2023-03-06T10:46:53.594Z,6.77
2023-03-06T10:49:36.151Z,6.89
2023-03-06T10:52:22.832Z,6.99
2023-03-06T10:54:53.311Z,7.03
2023-03-06T10:57:29.054Z,7.04
2023-03-06T11:00:01.114Z,7.09
2023-03-06T11:02:36.328Z,7.17
2023-03-06T11:05:19.928Z,7.23
2023-03-06T11:07:59.281Z,7.28
2023-03-06T11:10:31.037Z,7.34
2023-03-06T11:13:06.281Z,7.44
2023-03-06T11:15:37.025Z,7.53
2023-03-06T11:18:31.238Z,7.56
2023-03-06T11:21:02.564Z,7.59
2023-03-06T11:23:39.263Z,7.60
2023-03-06T11:26:25.976Z,7.62
2023-03-06T11:29:07.970Z,7.61
2023-03-06T11:31:43.789Z,7.58
2023-03-06T11:34:24.371Z,7.57
2023-03-06T11:36:59.636Z,7.62
2023-03-06T11:39:37.054Z,7.69
2023-03-06T11:42:16.917Z,7.78
2023-03-06T11:45:02.886Z,7.80
2023-03-06T11:47:37.871Z,7.78
2023-03-06T11:50:19.104Z,7.73
2023-03-06T11:52:52.535Z,7.65
2023-03-06T11:55:34.852Z,7.60
2023-03-06T11:58:23.197Z,7.58
2023-03-06T12:01:01.631Z,7.71
2023-03-06T12:03:57.822Z,7.79
2023-03-06T12:06:39.222Z,7.84
2023-03-06T12:09:25.215Z,7.97
2023-03-06T12:12:06.582Z,8.04
2023-03-06T12:14:53.230Z,8.12
2023-03-06T12:17:32.943Z,8.24
2023-03-06T12:20:22.427Z,8.33
2023-03-06T12:23:14.167Z,8.39
2023-03-06T12:25:49.454Z,8.41
2023-03-06T12:28:32.692Z,8.47
2023-03-06T12:31:23.784Z,8.50
2023-03-06T12:34:04.639Z,8.57
2023-03-06T12:36:48.341Z,8.58
2023-03-06T12:39:28.492Z,8.53
2023-03-06T12:42:22.634Z,8.51
2023-03-06T12:45:23.016Z,8.40
2023-03-06T12:47:57.398Z,8.32
2023-03-06T12:50:30.235Z,8.28
2023-03-06T12:53:04.011Z,8.27
2023-03-06T12:55:41.820Z,8.21
2023-03-06T12:58:51.077Z,8.11
2023-03-06T13:01:51.848Z,7.96
2023-03-06T13:04:36.391Z,7.88
2023-03-06T13:07:19.903Z,7.83
2023-03-06T13:10:06.867Z,7.81
2023-03-06T13:12:51.266Z,7.75
2023-03-06T13:15:39.973Z,7.63
2023-03-06T13:18:57.263Z,7.54
2023-03-06T13:22:03.929Z,7.47
2023-03-06T13:24:37.198Z,7.41
2023-03-06T13:27:11.019Z,7.33
2023-03-06T13:30:29.709Z,7.26
2023-03-06T13:33:00.250Z,7.20
2023-03-06T13:35:52.884Z,7.20
2023-03-06T13:39:08.643Z,7.20
2023-03-06T13:41:56.964Z,7.11
2023-03-06T13:44:53.332Z,6.83
2023-03-06T13:47:59.136Z,6.57
2023-03-06T13:50:38.410Z,6.38
2023-03-06T13:53:42.166Z,6.15
2023-03-06T13:56:19.566Z,6.02
2023-03-06T13:59:15.948Z,5.90
2023-03-06T14:01:57.643Z,5.77
2023-03-06T14:04:45.193Z,5.63
2023-03-06T14:07:24.933Z,5.57
2023-03-06T14:10:10.738Z,5.61
2023-03-06T14:12:44.486Z,5.76
2023-03-06T14:15:22.143Z,5.90
2023-03-06T14:17:58.707Z,5.99
2023-03-06T14:20:36.625Z,6.09
2023-03-06T14:23:28.214Z,6.21
2023-03-06T14:26:08.491Z,6.33
2023-03-06T14:28:39.117Z,6.41
2023-03-06T14:31:14.846Z,6.52
2023-03-06T14:33:51.329Z,6.65
2023-03-06T14:36:24.361Z,6.76
2023-03-06T14:38:58.253Z,6.83
2023-03-06T14:41:31.998Z,6.89
2023-03-06T14:44:19.381Z,6.96
2023-03-06T14:46:51.358Z,7.02
2023-03-06T14:49:24.892Z,7.08
2023-03-06T14:51:57.641Z,7.11
2023-03-06T14:54:32.741Z,7.14
2023-03-06T14:57:06.794Z,7.15
2023-03-06T14:59:44.551Z,7.19
2023-03-06T15:02:21.128Z,7.23
2023-03-06T15:04:56.271Z,7.25
2023-03-06T15:07:31.494Z,7.25
2023-03-06T15:10:02.577Z,7.25
2023-03-06T15:12:39.636Z,7.25
2023-03-06T15:15:29.026Z,7.24
2023-03-06T15:17:59.626Z,7.18
2023-03-06T15:20:51.870Z,7.15
2023-03-06T15:23:26.799Z,7.12
2023-03-06T15:26:01.852Z,7.14
2023-03-06T15:28:38.661Z,7.13
2023-03-06T15:35:37.334Z,7.07
2023-03-06T15:38:32.999Z,7.04
2023-03-06T15:41:05.528Z,6.95
2023-03-06T15:43:39.377Z,6.89
2023-03-06T15:50:30.926Z,6.80
2023-03-06T15:53:01.352Z,6.77
2023-03-06T15:55:32.866Z,6.72
2023-03-06T15:58:04.712Z,6.67
2023-03-06T16:00:38.594Z,6.61
2023-03-06T16:03:11.411Z,6.55
2023-03-06T16:05:42.055Z,6.49
2023-03-06T16:08:15.020Z,6.43
2023-03-06T16:10:46.832Z,6.37
2023-03-06T16:13:20.504Z,6.30
2023-03-06T16:20:17.697Z,6.15
2023-03-06T16:22:50.592Z,6.08
2023-03-06T16:29:33.804Z,5.95
2023-03-06T16:32:04.730Z,5.90
2023-03-06T16:34:35.320Z,5.85
2023-03-06T16:37:07.296Z,5.81
2023-03-06T16:39:37.712Z,5.77
2023-03-06T16:42:08.758Z,5.73
2023-03-06T16:44:39.512Z,5.69
2023-03-06T16:47:12.843Z,5.67
2023-03-06T16:49:43.424Z,5.65
2023-03-06T16:56:34.536Z,5.62
2023-03-06T16:59:05.337Z,5.60
2023-03-06T17:01:36.010Z,5.58
2023-03-06T17:04:06.930Z,5.57
2023-03-06T17:06:38.082Z,5.55
2023-03-06T17:13:22.462Z,5.62
2023-03-06T17:15:59.589Z,5.67
2023-03-06T17:22:42.672Z,5.78
2023-03-06T17:25:13.937Z,5.80
2023-03-06T17:27:44.476Z,5.80
2023-03-06T17:30:16.486Z,5.80
2023-03-06T17:32:46.951Z,5.80
2023-03-06T17:35:17.508Z,5.77
2023-03-06T17:37:47.975Z,5.71
2023-03-06T17:40:19.481Z,5.65
2023-03-06T17:42:50.713Z,5.61
2023-03-06T17:45:21.363Z,5.58
2023-03-06T17:47:55.491Z,5.57
2023-03-06T17:50:25.937Z,5.57
2023-03-06T17:52:56.750Z,5.55
2023-03-06T17:55:28.991Z,5.50
2023-03-06T17:57:59.533Z,5.45
2023-03-06T18:00:30.049Z,5.40
2023-03-06T18:03:54.024Z,5.36
2023-03-06T18:06:27.657Z,5.32
2023-03-06T18:08:59.031Z,5.28
2023-03-06T18:11:30.519Z,5.24
2023-03-06T18:14:01.083Z,5.20
2023-03-06T18:20:34.060Z,5.13
2023-03-06T18:23:04.501Z,5.09
2023-03-06T18:25:34.986Z,5.06
2023-03-06T18:28:42.587Z,5.05
2023-03-06T18:31:19.902Z,5.02
2023-03-06T18:33:52.012Z,5.00
2023-03-06T18:36:24.420Z,4.97
2023-03-06T18:38:55.710Z,4.97
2023-03-06T18:41:26.211Z,4.97
2023-03-06T18:43:57.928Z,4.98
2023-03-06T18:46:30.598Z,4.99
2023-03-06T18:49:01.726Z,4.99
2023-03-06T18:51:32.772Z,4.98
2023-03-06T18:54:04.931Z,4.98
2023-03-06T18:56:35.671Z,4.98
2023-03-06T18:59:08.009Z,4.99
2023-03-06T19:01:37.760Z,4.99
2023-03-06T19:04:08.229Z,4.99
2023-03-06T19:06:39.940Z,4.98
2023-03-06T19:09:11.375Z,4.96
2023-03-06T19:11:42.761Z,4.94
2023-03-06T19:14:13.497Z,4.94
2023-03-06T19:16:44.465Z,5.00
2023-03-06T19:19:14.967Z,5.05
2023-03-06T19:21:45.375Z,5.11
2023-03-06T19:24:15.822Z,5.18
2023-03-06T19:26:46.218Z,5.23
2023-03-06T19:29:16.982Z,5.21
2023-03-06T19:36:08.835Z,5.21
2023-03-06T19:38:37.960Z,5.22
2023-03-06T19:41:11.955Z,5.20
2023-03-06T19:43:43.410Z,5.13
2023-03-06T19:46:15.229Z,5.06
2023-03-06T19:48:46.401Z,4.98
2023-03-06T19:55:36.206Z,4.92
2023-03-06T19:58:07.266Z,4.84
2023-03-06T20:00:38.258Z,4.73
2023-03-06T20:03:09.044Z,4.67
2023-03-06T20:05:46.125Z,4.67
2023-03-06T20:08:16.580Z,4.67
2023-03-06T20:15:10.327Z,4.67
2023-03-06T20:17:41.112Z,4.66
2023-03-06T20:20:14.359Z,4.66
2023-03-06T20:22:44.772Z,4.66
2023-03-06T20:25:15.327Z,4.66
2023-03-06T20:27:45.736Z,4.71
2023-03-06T20:30:17.164Z,4.77
2023-03-06T20:32:47.641Z,4.82
2023-03-06T20:35:44.856Z,4.86
2023-03-06T20:42:29.085Z,4.90
2023-03-06T20:44:59.628Z,4.90
2023-03-06T20:47:30.309Z,4.90
2023-03-06T20:50:00.686Z,4.90
2023-03-06T20:52:31.157Z,4.89
2023-03-06T20:55:01.923Z,4.89
2023-03-06T21:06:25.851Z,4.69
2023-03-06T21:08:56.639Z,4.68
2023-03-06T21:11:28.286Z,4.68
2023-03-06T21:13:59.180Z,4.67
2023-03-06T21:20:56.344Z,4.62
2023-03-06T21:23:26.804Z,4.61
2023-03-06T21:25:57.421Z,4.62
2023-03-06T21:28:28.175Z,4.62
2023-03-06T21:31:00.604Z,4.62
2023-03-06T21:33:31.690Z,4.62
2023-03-06T21:36:02.503Z,4.69
2023-03-06T21:47:06.292Z,4.90
2023-03-06T21:49:36.872Z,4.90
2023-03-06T21:52:07.842Z,4.85
2023-03-06T21:54:38.421Z,4.79
2023-03-06T21:57:10.379Z,4.76
2023-03-06T21:59:41.289Z,4.78
2023-03-06T22:02:12.638Z,4.78
2023-03-06T22:04:44.301Z,4.76
2023-03-06T22:07:14.741Z,4.76
2023-03-06T22:09:45.278Z,4.75
2023-03-06T22:12:15.673Z,4.73
2023-03-06T22:14:47.034Z,4.72
2023-03-06T22:17:17.495Z,4.68
2023-03-06T22:19:49.121Z,4.64
2023-03-06T22:22:19.566Z,4.61
2023-03-06T22:24:50.990Z,4.55
2023-03-06T22:27:21.829Z,4.50
2023-03-06T22:29:52.874Z,4.48
2023-03-06T22:32:23.512Z,4.45
2023-03-06T22:34:54.033Z,4.42
2023-03-06T22:37:24.545Z,4.41
2023-03-06T22:39:55.003Z,4.42
2023-03-06T22:42:25.470Z,4.48
2023-03-06T22:44:55.967Z,4.53
2023-03-06T22:47:26.404Z,4.59
2023-03-06T22:49:57.004Z,4.63
2023-03-06T22:52:27.393Z,4.62
2023-03-06T22:54:58.166Z,4.58
2023-03-06T22:57:30.015Z,4.57
2023-03-06T23:00:00.479Z,4.57
2023-03-06T23:02:36.172Z,4.55
2023-03-06T23:05:07.409Z,4.53
2023-03-06T23:07:37.914Z,4.51
2023-03-06T23:10:10.538Z,4.49
2023-03-06T23:12:59.825Z,4.47
2023-03-06T23:15:49.036Z,4.44
2023-03-06T23:18:39.257Z,4.42
2023-03-06T23:21:28.211Z,4.41
2023-03-06T23:24:17.519Z,4.39
2023-03-06T23:26:48.003Z,4.38
2023-03-06T23:29:18.595Z,4.36
2023-03-06T23:31:49.116Z,4.33
2023-03-06T23:34:19.546Z,4.30
2023-03-06T23:36:49.996Z,4.27
2023-03-06T23:39:20.938Z,4.26
2023-03-06T23:41:51.433Z,4.23
2023-03-06T23:44:21.851Z,4.23
2023-03-06T23:46:52.269Z,4.27
2023-03-06T23:49:22.725Z,4.30
2023-03-06T23:51:53.262Z,4.32
2023-03-06T23:54:23.989Z,4.36
2023-03-06T23:56:54.608Z,4.35
2023-03-06T23:59:25.068Z,4.31
